Time;durP1;ratioP1;P1;durP2;ratioP2;P2;SDS_P1;SDS_P2;PMS_P1;PMS_P2;Temp;Humidity;BMP_temperature;BMP_pressure;BME280_temperature;BME280_humidity;BME280_pressure;Samples;Min_cycle;Max_cycle;Signal;HPM_P1;HPM_P2
2021/06/17 04:54:47;;;;;;;23.02;20.30;;;;;;;17.45;77.30;100267.00;5149177;27;20327;-71
2021/06/17 04:57:16;;;;;;;25.48;20.67;;;;;;;17.59;77.26;100261.34;5132738;27;20032;-70
2021/06/17 04:59:41;;;;;;;21.25;19.00;;;;;;;17.77;77.18;100262.50;5118997;27;41037;-67
2021/06/17 05:02:07;;;;;;;24.98;20.27;;;;;;;17.93;77.01;100261.16;5125118;27;20040;-70
2021/06/17 05:04:34;;;;;;;28.98;21.27;;;;;;;18.04;76.63;100262.34;5131134;27;25053;-68
2021/06/17 05:07:22;;;;;;;25.85;19.80;;;;;;;18.16;76.34;100257.06;5132453;27;20064;-67
2021/06/17 05:12:29;;;;;;;28.73;20.15;;;;;;;18.44;76.25;100265.56;5128781;27;20431;-72
2021/06/17 05:14:55;;;;;;;26.73;19.90;;;;;;;18.59;76.37;100267.94;5132005;27;20032;-70
2021/06/17 05:17:20;;;;;;;22.70;19.40;;;;;;;18.73;76.00;100270.50;5131587;27;20038;-73
2021/06/17 05:19:45;;;;;;;23.60;19.85;;;;;;;18.84;75.73;100271.66;5132246;27;20028;-70
2021/06/17 05:22:11;;;;;;;23.35;19.45;;;;;;;18.97;75.62;100274.22;5131254;27;40622;-71
2021/06/17 05:24:36;;;;;;;20.85;18.38;;;;;;;19.10;75.62;100271.38;5132474;27;20032;-75
2021/06/17 05:27:02;;;;;;;25.73;18.55;;;;;;;19.24;75.05;100268.53;5130980;27;20028;-65
2021/06/17 05:29:29;;;;;;;22.52;19.20;;;;;;;19.34;74.99;100273.41;5130782;27;20028;-65
2021/06/17 05:31:55;;;;;;;22.38;19.02;;;;;;;19.45;74.72;100269.94;5130573;27;20063;-64
2021/06/17 05:34:20;;;;;;;22.08;18.40;;;;;;;19.56;74.33;100269.19;5131979;27;20036;-68
2021/06/17 05:36:46;;;;;;;24.85;18.63;;;;;;;19.65;73.71;100274.28;5129760;27;32565;-71
2021/06/17 05:39:11;;;;;;;25.40;18.95;;;;;;;19.73;73.88;100271.25;5132166;27;20043;-72
2021/06/17 05:41:36;;;;;;;31.73;18.38;;;;;;;19.84;73.64;100259.69;5129714;27;20457;-74
2021/06/17 05:44:02;;;;;;;23.00;16.90;;;;;;;20.00;73.53;100266.31;5129952;27;35571;-67
2021/06/17 05:46:27;;;;;;;25.58;19.20;;;;;;;20.12;72.70;100269.06;5131207;27;25923;-68
2021/06/17 05:48:53;;;;;;;20.67;17.88;;;;;;;20.22;72.31;100255.78;5131924;27;20113;-68
2021/06/17 05:51:18;;;;;;;18.70;16.58;;;;;;;20.34;72.51;100263.09;5131787;27;20028;-68
2021/06/17 05:53:45;;;;;;;24.55;17.63;;;;;;;20.47;72.27;100257.47;5130307;27;33677;-67
2021/06/17 05:56:10;;;;;;;28.48;17.80;;;;;;;20.61;72.13;100261.59;5118187;27;20024;-67
2021/06/17 05:58:36;;;;;;;23.80;16.27;;;;;;;20.76;71.73;100252.19;5110039;27;38991;-66
2021/06/17 06:01:01;;;;;;;17.67;15.32;;;;;;;20.88;70.87;100258.44;5127659;27;20366;-64
2021/06/17 06:03:27;;;;;;;19.90;15.60;;;;;;;20.96;70.21;100262.66;5131444;27;20381;-66
2021/06/17 06:05:52;;;;;;;42.13;17.08;;;;;;;20.99;69.77;100264.06;5119151;27;20396;-65
2021/06/17 06:08:18;;;;;;;19.20;16.02;;;;;;;21.09;69.77;100261.56;5117661;27;20035;-66
2021/06/17 06:10:43;;;;;;;19.02;14.18;;;;;;;21.16;69.17;100265.00;5117655;27;20983;-67
2021/06/17 06:13:09;;;;;;;17.00;14.77;;;;;;;21.25;68.88;100262.72;5107911;28;20155;-66
2021/06/17 06:15:35;;;;;;;18.30;14.65;;;;;;;21.29;68.04;100270.13;5097101;28;20039;-66
2021/06/17 06:18:07;;;;;;;37.67;15.90;;;;;;;21.35;67.36;100267.53;5095428;28;20031;-65
2021/06/17 06:20:33;;;;;;;18.75;14.95;;;;;;;21.45;67.81;100267.75;5109409;28;20503;-65
2021/06/17 06:22:58;;;;;;;20.77;16.17;;;;;;;21.59;67.64;100266.41;5117720;28;20028;-65
2021/06/17 06:25:24;;;;;;;26.85;14.68;;;;;;;21.76;67.44;100271.91;5117709;28;20566;-64
2021/06/17 06:27:49;;;;;;;20.33;14.35;;;;;;;21.92;67.08;100274.88;5117204;27;20434;-65
2021/06/17 06:30:15;;;;;;;16.35;13.57;;;;;;;22.08;66.40;100276.81;5116961;27;20530;-66
2021/06/17 06:32:40;;;;;;;17.58;13.90;;;;;;;22.26;66.31;100281.16;5116976;27;20115;-64
2021/06/17 06:35:07;;;;;;;20.60;13.65;;;;;;;22.45;66.15;100281.78;5116224;28;39164;-66
2021/06/17 06:37:32;;;;;;;16.42;13.13;;;;;;;22.59;65.15;100282.25;5116853;27;20032;-67
2021/06/17 06:39:57;;;;;;;15.38;12.93;;;;;;;22.67;63.75;100294.63;5115674;28;20452;-66
2021/06/17 06:42:23;;;;;;;18.27;12.68;;;;;;;22.68;64.32;100293.53;5116864;28;30510;-67
2021/06/17 06:44:48;;;;;;;16.02;12.77;;;;;;;22.85;64.43;100285.38;5117232;28;20024;-68
2021/06/17 06:47:14;;;;;;;15.57;12.77;;;;;;;22.98;63.14;100293.16;5116091;28;20031;-67
2021/06/17 06:49:39;;;;;;;14.73;11.73;;;;;;;23.03;63.05;100295.13;5116606;28;20036;-71
2021/06/17 06:52:04;;;;;;;17.48;11.80;;;;;;;23.14;62.61;100294.25;5116032;27;33871;-69
2021/06/17 06:54:30;;;;;;;14.73;11.82;;;;;;;23.17;60.86;100301.06;5115734;28;20079;-70
2021/06/17 06:56:55;;;;;;;20.52;11.95;;;;;;;23.15;61.27;100295.88;5116647;27;20024;-71
2021/06/17 06:59:21;;;;;;;15.80;11.02;;;;;;;23.31;61.58;100307.75;5115206;27;33985;-66
2021/06/17 07:01:46;;;;;;;21.60;11.65;;;;;;;23.45;60.51;100307.38;5116409;27;20469;-67
2021/06/17 07:04:12;;;;;;;17.63;12.25;;;;;;;23.58;60.54;100320.59;5116651;28;20024;-66
2021/06/17 07:06:38;;;;;;;15.38;11.48;;;;;;;23.72;60.61;100317.50;5116542;27;20021;-65
2021/06/17 07:09:04;;;;;;;14.40;10.73;;;;;;;23.94;60.09;100323.75;5116553;28;20028;-65
2021/06/17 07:11:31;;;;;;;13.48;10.80;;;;;;;24.12;60.00;100317.13;5116651;27;20031;-66
2021/06/17 07:13:57;;;;;;;18.80;11.18;;;;;;;24.31;59.21;100314.84;5116320;28;20032;-66
2021/06/17 07:16:22;;;;;;;16.50;10.38;;;;;;;24.44;58.67;100319.03;5114676;27;39248;-65
2021/06/17 07:18:47;;;;;;;13.40;9.52;;;;;;;24.57;58.32;100319.69;5114073;28;26523;-63
2021/06/17 07:21:15;;;;;;;21.88;10.30;;;;;;;24.70;57.57;100323.88;5114885;28;20476;-62
2021/06/17 07:23:41;;;;;;;16.92;9.60;;;;;;;24.66;55.64;100320.88;5115952;27;20032;-65
2021/06/17 07:26:06;;;;;;;12.52;9.82;;;;;;;24.67;55.25;100330.69;5114988;28;20028;-65
2021/06/17 07:28:32;;;;;;;13.05;9.07;;;;;;;24.67;55.75;100328.78;5115214;28;20032;-65
2021/06/17 07:30:57;;;;;;;24.80;10.07;;;;;;;24.80;55.57;100322.06;5115850;27;20093;-68
2021/06/17 07:33:23;;;;;;;15.88;9.30;;;;;;;25.06;56.05;100335.03;5115487;27;20669;-65
2021/06/17 07:35:48;;;;;;;15.05;9.75;;;;;;;25.28;55.72;100330.25;5115418;28;33330;-73
2021/06/17 07:38:14;;;;;;;13.05;8.95;;;;;;;25.53;55.75;100325.22;5114803;28;20036;-78
2021/06/17 07:40:42;;;;;;;20.58;7.88;;;;;;;25.67;54.15;100335.34;5116294;28;20129;-75
2021/06/17 07:43:09;;;;;;;13.45;7.15;;;;;;;25.73;51.91;100338.09;5116021;28;20759;-69
2021/06/17 07:45:35;;;;;;;16.27;6.85;;;;;;;25.75;52.41;100331.31;5114204;28;20467;-70
2021/06/17 07:48:01;;;;;;;14.73;8.75;;;;;;;25.85;51.50;100335.97;5115959;28;20075;-68
2021/06/17 07:50:26;;;;;;;13.63;7.72;;;;;;;25.98;52.00;100331.88;5116369;28;20020;-70
2021/06/17 07:52:51;;;;;;;11.60;7.03;;;;;;;26.01;49.14;100342.25;5115489;28;22963;-71
2021/06/17 07:55:17;;;;;;;11.10;6.80;;;;;;;25.95;48.84;100348.81;5115615;28;32772;-71
2021/06/17 07:57:42;;;;;;;8.18;6.75;;;;;;;25.90;48.03;100355.06;5115847;28;20028;-73
2021/06/17 08:00:08;;;;;;;14.52;6.93;;;;;;;25.87;48.46;100341.16;5100901;28;20028;-72
2021/06/17 08:02:34;;;;;;;11.68;6.47;;;;;;;26.01;47.75;100334.91;5095506;28;20029;-67
2021/06/17 08:04:59;;;;;;;9.40;6.80;;;;;;;26.08;47.32;100336.56;5111404;28;37697;-67
2021/06/17 08:07:24;;;;;;;9.55;6.93;;;;;;;26.27;47.70;100336.88;5114961;28;41211;-70
2021/06/17 08:09:50;;;;;;;9.70;6.28;;;;;;;26.46;47.27;100331.69;5115910;28;20541;-71
2021/06/17 08:12:16;;;;;;;9.32;6.57;;;;;;;26.69;47.64;100317.47;5114821;28;20383;-69
2021/06/17 08:14:41;;;;;;;9.82;6.47;;;;;;;26.89;47.10;100324.03;5113371;28;34585;-72
2021/06/17 08:17:06;;;;;;;11.07;6.45;;;;;;;27.18;47.59;100326.97;5115945;27;20032;-63
2021/06/17 08:19:32;;;;;;;9.57;6.85;;;;;;;27.34;45.08;100327.72;5114542;27;27909;-64
2021/06/17 08:21:58;;;;;;;9.93;5.82;;;;;;;27.41;45.85;100326.66;5115213;27;20465;-68
2021/06/17 08:24:24;;;;;;;8.40;6.00;;;;;;;27.66;46.16;100328.44;5115635;27;20067;-64
2021/06/17 08:26:50;;;;;;;9.65;5.78;;;;;;;27.88;45.53;100330.78;5115545;27;20030;-63
2021/06/17 08:29:15;;;;;;;12.10;6.20;;;;;;;28.09;44.09;100339.75;5114658;27;20031;-64
2021/06/17 08:31:43;;;;;;;11.88;5.93;;;;;;;28.13;44.19;100331.75;5114486;28;28659;-64
2021/06/17 08:34:08;;;;;;;9.98;5.28;;;;;;;28.16;42.61;100344.91;5115228;28;20878;-66
2021/06/17 08:36:34;;;;;;;10.27;5.60;;;;;;;28.09;42.30;100331.53;5114061;28;20032;-68
2021/06/17 08:38:59;;;;;;;8.27;4.82;;;;;;;27.99;40.57;100337.81;5114776;27;37914;-64
2021/06/17 08:41:24;;;;;;;6.88;4.63;;;;;;;27.90;40.66;100342.28;5115046;28;28665;-66
2021/06/17 08:43:53;;;;;;;9.15;5.47;;;;;;;28.05;40.50;100337.84;5113127;28;32251;-66
2021/06/17 08:46:18;;;;;;;7.85;5.30;;;;;;;28.03;39.16;100340.84;5115108;28;24264;-65
2021/06/17 08:48:44;;;;;;;8.75;5.57;;;;;;;27.97;39.44;100334.56;5114569;27;34203;-70
2021/06/17 08:51:10;;;;;;;8.05;4.32;;;;;;;28.16;39.66;100340.22;5115485;28;20387;-65
2021/06/17 08:53:35;;;;;;;7.50;4.05;;;;;;;28.22;38.69;100335.53;5114574;28;20048;-64
2021/06/17 08:56:00;;;;;;;20.33;5.60;;;;;;;28.33;38.45;100336.28;5115230;28;20040;-64
2021/06/17 08:58:26;;;;;;;5.50;4.05;;;;;;;28.46;36.73;100346.59;5114195;28;28067;-63
2021/06/17 09:00:51;;;;;;;8.30;4.30;;;;;;;28.55;37.72;100335.81;5114142;28;29114;-63
2021/06/17 09:03:18;;;;;;;12.95;5.70;;;;;;;28.72;36.88;100342.81;5114425;27;37026;-63
2021/06/17 09:05:45;;;;;;;25.63;7.18;;;;;;;28.83;36.92;100344.38;5115182;28;20055;-64
2021/06/17 09:08:11;;;;;;;6.40;3.97;;;;;;;29.12;36.83;100343.53;5115248;28;20024;-63
2021/06/17 09:10:41;;;;;;;8.07;4.10;;;;;;;29.40;36.65;100343.78;5115577;28;20024;-64
2021/06/17 09:13:06;;;;;;;11.63;4.68;;;;;;;29.56;35.90;100350.72;5114177;27;20028;-65
2021/06/17 09:15:37;;;;;;;9.63;4.18;;;;;;;29.53;34.63;100341.13;5114938;28;20408;-65
2021/06/17 09:18:18;;;;;;;11.10;3.97;;;;;;;29.55;34.54;100360.03;5115261;28;20047;-65
2021/06/17 09:20:44;;;;;;;7.35;4.40;;;;;;;29.50;33.88;100343.66;5115111;28;20050;-67
2021/06/17 09:23:39;;;;;;;18.77;4.50;;;;;;;29.51;34.35;100337.03;5114695;27;20028;-64
2021/06/17 09:26:09;;;;;;;12.57;5.70;;;;;;;29.68;34.27;100331.88;5101109;28;20124;-67
2021/06/17 09:28:44;;;;;;;7.15;4.03;;;;;;;29.74;33.85;100323.59;5114255;27;20775;-64
2021/06/17 09:31:24;;;;;;;30.13;6.03;;;;;;;29.94;33.46;100331.56;5115075;28;20028;-64
2021/06/17 09:33:49;;;;;;;;;;;;;;;30.12;33.51;100329.09;5114921;27;20020;-64
2021/06/17 09:36:15;;;;;;;7.38;3.85;;;;;;;30.19;32.48;100324.03;5114832;28;19920;-66
2021/06/17 09:38:45;;;;;;;5.22;4.00;;;;;;;30.11;32.33;100327.47;5113951;27;34235;-66
2021/06/17 09:41:10;;;;;;;5.13;3.40;;;;;;;30.15;32.05;100325.75;5117176;28;20031;-67
2021/06/17 09:43:43;;;;;;;12.55;4.30;;;;;;;30.19;31.44;100335.03;5116610;28;20381;-66
2021/06/17 09:46:11;;;;;;;41.38;6.10;;;;;;;30.36;31.91;100334.50;5118329;28;20775;-66
2021/06/17 09:48:37;;;;;;;6.50;3.22;;;;;;;30.48;31.39;100332.13;5118146;27;20047;-67
2021/06/17 09:51:24;;;;;;;6.65;3.40;;;;;;;30.59;31.51;100326.44;5116817;28;20047;-66
2021/06/17 09:53:50;;;;;;;5.63;3.50;;;;;;;30.82;30.89;100324.66;5117185;28;20056;-68
2021/06/17 09:56:16;;;;;;;11.07;4.13;;;;;;;31.10;30.72;100324.69;5116173;28;20176;-68
2021/06/17 09:58:44;;;;;;;5.68;3.25;;;;;;;31.22;30.20;100323.06;5116917;27;20462;-66
2021/06/17 10:01:16;;;;;;;5.80;3.50;;;;;;;31.16;29.58;100320.72;5117587;28;20427;-66
2021/06/17 10:03:42;;;;;;;4.88;3.25;;;;;;;31.34;29.77;100319.81;5117249;27;20215;-68
2021/06/17 10:06:18;;;;;;;6.55;3.90;;;;;;;31.24;29.27;100309.00;5116302;28;20516;-66
2021/06/17 10:08:44;;;;;;;9.05;3.90;;;;;;;31.41;30.09;100305.63;5117615;28;20024;-65
2021/06/17 10:11:09;;;;;;;7.07;3.58;;;;;;;31.43;28.88;100306.13;5116087;28;20086;-65
2021/06/17 10:13:34;;;;;;;13.10;4.38;;;;;;;31.30;29.26;100290.44;5115631;28;20467;-66
2021/06/17 10:16:00;;;;;;;31.98;6.43;;;;;;;31.39;28.78;100294.91;5115416;28;27449;-66
2021/06/17 10:18:25;;;;;;;10.82;4.10;;;;;;;31.22;28.53;100297.47;5113444;28;38842;-69
2021/06/17 10:20:51;;;;;;;4.53;3.47;;;;;;;31.15;28.82;100283.31;5115174;28;36378;-65
2021/06/17 10:23:16;;;;;;;6.65;4.07;;;;;;;31.36;28.93;100297.50;5116701;28;20039;-67
2021/06/17 10:25:43;;;;;;;4.50;3.05;;;;;;;31.36;28.15;100298.28;5116873;27;20028;-69
2021/06/17 10:28:09;;;;;;;10.10;3.35;;;;;;;31.54;28.68;100309.50;5116861;27;20024;-72
2021/06/17 10:30:48;;;;;;;9.93;5.57;;;;;;;31.76;28.88;100305.19;5115990;28;31151;-68
2021/06/17 10:33:29;;;;;;;5.63;3.28;;;;;;;31.77;28.17;100304.88;5115083;28;20162;-67
2021/06/17 10:36:16;;;;;;;7.60;3.40;;;;;;;31.59;27.50;100309.41;5115156;28;20082;-69
2021/06/17 10:39:13;;;;;;;12.00;3.55;;;;;;;31.17;27.02;100298.41;5116185;28;20054;-67
2021/06/17 10:41:54;;;;;;;5.75;3.47;;;;;;;30.90;27.41;100310.19;5115425;28;20028;-67
2021/06/17 10:44:42;;;;;;;8.85;3.30;;;;;;;30.91;27.97;100311.84;5115842;28;20071;-71
2021/06/17 10:47:07;;;;;;;4.97;2.88;;;;;;;30.99;27.69;100305.63;5114360;28;20056;-73
2021/06/17 10:49:42;;;;;;;4.65;3.05;;;;;;;31.09;27.52;100295.56;5115696;27;37914;-76
2021/06/17 10:52:27;;;;;;;6.00;2.80;;;;;;;31.19;26.87;100312.69;5113090;28;20554;-79
2021/06/17 10:55:00;;;;;;;7.78;2.90;;;;;;;31.17;26.86;100292.09;5117410;27;20047;-71
2021/06/17 10:57:44;;;;;;;4.05;2.65;;;;;;;30.96;26.07;100297.16;5115404;28;20032;-73
2021/06/17 11:00:25;;;;;;;4.85;2.60;;;;;;;30.94;26.72;100305.72;5116183;27;20043;-72
2021/06/17 11:03:06;;;;;;;7.53;3.60;;;;;;;30.82;26.25;100291.66;5116753;28;20040;-68
2021/06/17 11:05:31;;;;;;;10.25;3.58;;;;;;;30.88;26.89;100282.19;5116628;27;20035;-70
2021/06/17 11:08:19;;;;;;;8.18;3.83;;;;;;;30.97;26.87;100294.09;5114716;28;20496;-69
2021/06/17 11:10:51;;;;;;;4.65;2.55;;;;;;;31.05;26.47;100290.66;5114268;28;20123;-74
2021/06/17 11:13:29;;;;;;;23.05;5.07;;;;;;;31.12;26.84;100283.94;5116003;28;20090;-71
2021/06/17 11:16:00;;;;;;;9.07;3.30;;;;;;;31.27;26.88;100274.56;5114065;28;20028;-74
2021/06/17 11:18:41;;;;;;;4.85;3.50;;;;;;;31.42;26.68;100276.97;5114642;28;20645;-69
2021/06/17 11:21:26;;;;;;;6.68;3.40;;;;;;;31.37;26.10;100277.09;5115652;27;20655;-68
2021/06/17 11:24:08;;;;;;;5.30;3.30;;;;;;;31.19;25.98;100270.59;5112566;28;20039;-67
2021/06/17 11:26:44;;;;;;;9.18;3.88;;;;;;;31.19;26.65;100270.59;5113474;28;20111;-70
2021/06/17 11:29:14;;;;;;;9.13;3.55;;;;;;;31.30;26.54;100283.00;5112100;28;20028;-70
2021/06/17 11:31:44;;;;;;;5.65;3.67;;;;;;;31.32;26.76;100272.50;5115680;27;20036;-72
2021/06/17 11:34:13;;;;;;;6.90;3.25;;;;;;;31.48;26.57;100280.44;5116018;27;20043;-69
2021/06/17 11:36:52;;;;;;;5.95;3.78;;;;;;;31.30;26.36;100274.75;5115488;28;20063;-73
2021/06/17 11:39:27;;;;;;;7.40;5.60;;;;;;;31.38;26.97;100278.72;5114824;28;20028;-83
2021/06/17 11:41:54;;;;;;;5.97;3.67;;;;;;;31.35;26.77;100276.59;5115100;28;20081;-75
2021/06/17 11:44:24;;;;;;;5.82;3.28;;;;;;;31.39;27.10;100277.59;5098240;28;20107;-70
2021/06/17 11:46:51;;;;;;;7.93;3.65;;;;;;;31.46;26.69;100274.44;5115497;27;20940;-80
2021/06/17 11:49:17;;;;;;;5.15;3.60;;;;;;;31.35;26.62;100265.59;5112731;28;20214;-76
2021/06/17 11:51:47;;;;;;;5.45;3.90;;;;;;;31.25;26.38;100277.63;5114134;28;20144;-77
2021/06/17 11:54:26;;;;;;;6.85;3.47;;;;;;;31.10;26.69;100266.91;5114912;28;20050;-75
2021/06/17 11:56:57;;;;;;;5.07;3.47;;;;;;;31.11;27.00;100260.31;5114120;28;20108;-73
2021/06/17 11:59:27;;;;;;;4.15;3.28;;;;;;;30.95;26.56;100277.09;5114915;27;20036;-71
2021/06/17 12:02:15;;;;;;;6.15;3.78;;;;;;;30.90;26.82;100263.44;5115181;28;20478;-73
2021/06/17 12:04:59;;;;;;;10.85;3.88;;;;;;;30.82;26.74;100253.16;5095689;28;20036;-78
2021/06/17 12:07:28;;;;;;;10.05;4.55;;;;;;;30.84;27.30;100245.44;5095199;28;20035;-79
2021/06/17 12:09:55;;;;;;;6.10;3.95;;;;;;;31.04;27.49;100263.47;5099891;28;20036;-73
2021/06/17 12:12:23;;;;;;;5.63;3.70;;;;;;;30.96;26.99;100253.97;5115375;28;20020;-73
2021/06/17 12:14:57;;;;;;;6.60;3.60;;;;;;;30.89;26.81;100259.06;5115590;28;20029;-67
2021/06/17 12:17:29;;;;;;;5.20;3.10;;;;;;;30.95;27.39;100246.84;5115718;27;20095;-70
2021/06/17 12:19:55;;;;;;;4.72;3.38;;;;;;;31.08;27.25;100245.22;5114102;28;20496;-73
2021/06/17 12:22:21;;;;;;;9.88;3.65;;;;;;;31.19;26.94;100240.31;5096653;28;20035;-68
2021/06/17 12:24:46;;;;;;;7.10;3.67;;;;;;;31.35;27.15;100266.38;5114772;28;20047;-67
2021/06/17 12:27:12;;;;;;;6.13;3.70;;;;;;;31.16;26.34;100247.25;5113070;28;33734;-69
2021/06/17 12:29:37;;;;;;;5.53;3.83;;;;;;;30.93;26.75;100232.56;5095597;28;39208;-67
2021/06/17 12:32:03;;;;;;;6.95;3.10;;;;;;;30.87;26.60;100240.13;5114965;27;20111;-68
2021/06/17 12:34:43;;;;;;;8.70;3.30;;;;;;;30.77;26.79;100229.34;5114617;28;20040;-68
2021/06/17 12:37:12;;;;;;;6.95;3.35;;;;;;;30.89;27.51;100228.81;5115310;28;20024;-70
2021/06/17 12:39:38;;;;;;;5.25;3.50;;;;;;;31.00;26.91;100223.91;5113570;28;20043;-68
2021/06/17 12:42:13;;;;;;;7.03;3.35;;;;;;;30.95;26.69;100215.75;5115069;27;20024;-69
2021/06/17 12:44:42;;;;;;;8.57;3.40;;;;;;;30.95;26.35;100213.84;5113552;28;20836;-68
2021/06/17 12:47:16;;;;;;;4.60;2.90;;;;;;;30.97;26.47;100208.03;5114955;28;20028;-66
2021/06/17 12:52:26;;;;;;;5.32;3.20;;;;;;;31.08;26.07;100216.91;5113414;28;20043;-67
2021/06/17 12:54:52;;;;;;;4.05;3.00;;;;;;;31.11;25.94;100206.13;5114913;27;20028;-68
2021/06/17 12:57:19;;;;;;;7.97;3.30;;;;;;;31.21;25.77;100216.09;5114935;27;20028;-68
2021/06/17 13:00:03;;;;;;;5.22;3.13;;;;;;;31.19;26.00;100204.56;5114455;28;20039;-67
2021/06/17 13:02:31;;;;;;;8.40;3.60;;;;;;;31.15;25.70;100192.53;5113342;28;20108;-74
2021/06/17 13:05:17;;;;;;;7.72;3.20;;;;;;;31.33;26.25;100205.34;5115264;28;20040;-67
2021/06/17 13:08:04;;;;;;;4.78;3.10;;;;;;;31.55;26.00;100192.75;5114379;28;20107;-67
2021/06/17 13:10:31;;;;;;;4.30;3.08;;;;;;;31.52;25.05;100201.59;5114658;28;20067;-67
2021/06/17 13:13:19;;;;;;;4.60;3.00;;;;;;;31.32;24.67;100203.72;5113590;27;20025;-69
2021/06/17 13:15:45;;;;;;;6.13;3.10;;;;;;;31.16;24.52;100192.22;5114961;28;20439;-77
2021/06/17 13:18:12;;;;;;;5.20;2.90;;;;;;;31.05;24.92;100185.31;5116718;28;20028;-72
2021/06/17 13:20:39;;;;;;;21.50;4.60;;;;;;;31.05;24.77;100186.13;5118478;28;20024;-70
2021/06/17 13:23:05;;;;;;;6.78;3.50;;;;;;;31.11;25.33;100186.03;5118039;27;20115;-69
2021/06/17 13:25:33;;;;;;;6.53;3.38;;;;;;;31.22;24.85;100187.41;5117912;28;20123;-72
2021/06/17 13:28:00;;;;;;;5.15;3.22;;;;;;;31.13;25.19;100186.53;5117547;27;20040;-67
2021/06/17 13:30:35;;;;;;;4.10;3.20;;;;;;;31.19;25.61;100182.53;5117410;28;20032;-68
2021/06/17 13:33:03;;;;;;;6.38;3.53;;;;;;;31.30;25.37;100191.38;5117890;27;20459;-67
2021/06/17 13:35:30;;;;;;;6.30;3.35;;;;;;;31.31;25.67;100188.31;5118176;28;20038;-67
2021/06/17 13:37:55;;;;;;;5.75;3.58;;;;;;;31.34;25.70;100201.47;5117984;28;20060;-68
2021/06/17 13:40:21;;;;;;;5.50;3.63;;;;;;;31.21;25.68;100191.31;5117879;28;20338;-68
2021/06/17 13:42:55;;;;;;;5.18;3.90;;;;;;;31.01;25.65;100187.84;5117810;28;20388;-69
2021/06/17 13:45:21;;;;;;;8.50;3.70;;;;;;;31.01;26.52;100176.84;5117595;28;20060;-69
2021/06/17 13:47:46;;;;;;;7.60;3.85;;;;;;;31.30;26.76;100178.44;5117862;27;20574;-68
2021/06/17 13:50:12;;;;;;;7.97;3.88;;;;;;;31.49;26.38;100186.53;5117043;28;30568;-68
2021/06/17 13:52:37;;;;;;;5.35;3.45;;;;;;;31.56;26.30;100186.94;5117339;27;20032;-69
2021/06/17 13:55:07;;;;;;;4.72;3.50;;;;;;;31.48;26.11;100192.34;5116754;28;36682;-70
2021/06/17 13:57:33;;;;;;;8.05;3.83;;;;;;;31.39;26.09;100182.06;5117445;27;20035;-70
2021/06/17 13:59:58;;;;;;;7.38;3.83;;;;;;;31.44;26.23;100183.09;5117006;28;20499;-70
2021/06/17 14:02:23;;;;;;;5.15;3.63;;;;;;;31.38;25.93;100174.97;5116995;27;35221;-70
2021/06/17 14:04:49;;;;;;;6.13;3.88;;;;;;;31.33;26.18;100175.09;5117563;28;20484;-68
2021/06/17 14:07:14;;;;;;;7.13;4.30;;;;;;;31.37;26.27;100180.75;5117799;27;20066;-71
2021/06/17 14:09:40;;;;;;;5.45;3.50;;;;;;;31.24;26.38;100187.94;5117148;28;28510;-74
2021/06/17 14:12:05;;;;;;;7.05;4.30;;;;;;;31.11;26.40;100183.28;5117336;27;20085;-73
2021/06/17 14:14:31;;;;;;;8.38;3.88;;;;;;;31.00;26.54;100172.47;5115866;28;20089;-69
2021/06/17 14:16:56;;;;;;;7.00;3.88;;;;;;;30.97;26.52;100170.31;5117146;28;20031;-71
2021/06/17 14:19:21;;;;;;;5.47;3.53;;;;;;;30.99;26.98;100173.59;5117528;28;20429;-73
2021/06/17 14:21:49;;;;;;;5.32;3.58;;;;;;;30.92;26.82;100169.63;5116271;27;29163;-76
2021/06/17 14:24:14;;;;;;;6.75;4.10;;;;;;;30.89;27.11;100171.06;5115755;28;20194;-69
2021/06/17 14:26:43;;;;;;;6.00;3.92;;;;;;;30.87;27.29;100165.06;5116300;27;22153;-71
2021/06/17 14:29:09;;;;;;;7.00;4.40;;;;;;;30.83;27.25;100166.78;5116688;28;20032;-71
2021/06/17 14:31:35;;;;;;;7.10;4.40;;;;;;;30.76;27.33;100166.41;5116898;27;20020;-73
2021/06/17 14:34:01;;;;;;;8.07;4.50;;;;;;;30.77;27.48;100157.00;5117644;28;20593;-68
2021/06/17 14:36:26;;;;;;;6.20;4.25;;;;;;;30.72;27.27;100156.00;5117153;27;20028;-68
2021/06/17 14:38:52;;;;;;;5.07;4.05;;;;;;;30.72;28.04;100146.94;5116142;28;38501;-71
2021/06/17 14:41:17;;;;;;;9.00;4.68;;;;;;;30.70;27.77;100163.75;5116867;27;20093;-74
2021/06/17 14:43:43;;;;;;;6.75;4.43;;;;;;;30.55;27.72;100159.38;5115844;28;26948;-70
2021/06/17 14:46:10;;;;;;;6.55;4.20;;;;;;;30.48;27.92;100155.41;5116743;27;20028;-70
